createdAt,value
2022-12-18T00:01:30.251Z,41.13
2022-12-18T00:03:58.012Z,42.67
2022-12-18T00:06:28.275Z,42.47
2022-12-18T00:08:57.628Z,43.67
2022-12-18T00:11:28.866Z,44.40
2022-12-18T00:13:58.748Z,44.70
2022-12-18T00:16:28.339Z,44.70
2022-12-18T00:18:57.645Z,43.27
2022-12-18T00:21:25.313Z,44.57
2022-12-18T00:23:53.691Z,43.73
2022-12-18T00:26:23.096Z,46.50
2022-12-18T00:28:52.949Z,43.80
2022-12-18T00:31:23.161Z,43.90
2022-12-18T00:33:53.962Z,43.40
2022-12-18T00:36:24.929Z,41.17
2022-12-18T00:38:52.733Z,41.20
2022-12-18T00:41:34.604Z,42.00
2022-12-18T00:44:04.054Z,42.77
2022-12-18T00:46:31.827Z,44.00
2022-12-18T00:48:59.575Z,43.87
2022-12-18T00:51:27.650Z,44.60
2022-12-18T00:53:55.803Z,44.67
2022-12-18T00:56:23.448Z,46.43
2022-12-18T00:58:51.811Z,45.57
2022-12-18T01:01:21.682Z,43.47
2022-12-18T01:03:49.808Z,45.57
2022-12-18T01:06:18.444Z,45.60
2022-12-18T01:08:46.654Z,46.30
2022-12-18T01:11:17.277Z,43.53
2022-12-18T01:13:45.593Z,45.83
2022-12-18T01:16:13.707Z,44.07
2022-12-18T01:18:42.871Z,45.47
2022-12-18T01:21:12.364Z,46.00
2022-12-18T01:23:40.665Z,45.30
2022-12-18T01:26:10.427Z,45.23
2022-12-18T01:28:38.341Z,44.23
2022-12-18T01:31:15.289Z,45.87
2022-12-18T01:33:44.500Z,44.43
2022-12-18T01:36:17.567Z,45.10
2022-12-18T01:38:45.777Z,45.13
2022-12-18T01:41:14.069Z,45.20
2022-12-18T01:43:46.868Z,43.23
2022-12-18T01:46:14.888Z,46.47
2022-12-18T01:48:44.499Z,45.33
2022-12-18T01:51:13.100Z,46.73
2022-12-18T01:53:43.446Z,44.40
2022-12-18T01:56:15.392Z,44.30
2022-12-18T01:58:50.700Z,43.73
2022-12-18T02:01:19.240Z,43.77
2022-12-18T02:03:48.286Z,45.67
2022-12-18T02:06:21.062Z,43.53
2022-12-18T02:09:03.651Z,45.43
2022-12-18T02:11:42.156Z,42.73
2022-12-18T02:14:20.312Z,42.77
2022-12-18T02:16:54.940Z,44.53
2022-12-18T02:19:49.387Z,43.73
2022-12-18T02:22:28.388Z,42.70
2022-12-18T02:25:07.413Z,43.30
2022-12-18T02:27:40.033Z,44.63
2022-12-18T02:30:09.316Z,41.90
2022-12-18T02:32:41.847Z,44.30
2022-12-18T02:35:14.718Z,46.40
2022-12-18T02:37:45.320Z,44.50
2022-12-18T02:40:15.826Z,44.47
2022-12-18T02:42:44.961Z,42.97
2022-12-18T02:45:13.068Z,43.47
2022-12-18T02:47:44.116Z,45.00
2022-12-18T02:50:20.062Z,46.10
2022-12-18T02:52:54.897Z,42.43
2022-12-18T02:55:33.563Z,43.00
2022-12-18T02:58:07.698Z,44.60
2022-12-18T03:00:40.415Z,44.20
2022-12-18T03:03:14.475Z,42.57
2022-12-18T03:05:46.119Z,42.30
2022-12-18T03:08:18.982Z,42.10
2022-12-18T03:10:53.279Z,41.63
2022-12-18T03:13:28.446Z,41.63
2022-12-18T03:15:58.845Z,40.50
2022-12-18T03:18:31.936Z,42.50
2022-12-18T03:21:05.659Z,43.43
2022-12-18T03:23:41.717Z,41.40
2022-12-18T03:26:12.503Z,41.13
2022-12-18T03:28:46.152Z,42.57
2022-12-18T03:31:16.007Z,41.27
2022-12-18T03:33:48.375Z,40.03
2022-12-18T03:36:17.365Z,43.83
2022-12-18T03:38:45.060Z,42.60
2022-12-18T03:41:18.752Z,41.20
2022-12-18T03:43:53.948Z,42.00
2022-12-18T03:46:29.450Z,41.70
2022-12-18T03:49:03.539Z,42.57
2022-12-18T03:51:41.295Z,40.90
2022-12-18T03:54:11.964Z,41.63
2022-12-18T03:56:44.015Z,43.70
2022-12-18T03:59:14.956Z,41.03
2022-12-18T04:01:45.915Z,43.43
2022-12-18T04:04:16.276Z,42.73
2022-12-18T04:06:45.707Z,42.87
2022-12-18T04:09:13.829Z,43.03
2022-12-18T04:11:43.152Z,42.87
2022-12-18T04:14:14.376Z,43.20
2022-12-18T04:16:46.537Z,41.93
2022-12-18T04:19:14.487Z,45.57
2022-12-18T04:21:42.166Z,40.93
2022-12-18T04:24:09.882Z,42.53
2022-12-18T04:26:37.464Z,41.00
2022-12-18T04:29:05.164Z,40.03
2022-12-18T04:31:32.909Z,41.03
2022-12-18T04:34:02.918Z,43.77
2022-12-18T04:36:30.679Z,43.00
2022-12-18T04:38:58.309Z,42.90
2022-12-18T04:41:25.936Z,43.20
2022-12-18T04:43:53.497Z,43.83
2022-12-18T04:46:21.124Z,42.17
2022-12-18T04:48:49.010Z,42.20
2022-12-18T04:51:20.925Z,42.47
2022-12-18T04:53:54.324Z,41.60
2022-12-18T04:56:21.994Z,41.73
2022-12-18T04:58:49.616Z,41.23
2022-12-18T05:01:19.531Z,43.27
2022-12-18T05:03:47.279Z,43.60
2022-12-18T05:06:15.004Z,41.30
2022-12-18T05:08:45.018Z,41.30
2022-12-18T05:11:16.569Z,41.10
2022-12-18T05:13:45.297Z,39.07
2022-12-18T05:16:13.009Z,40.90
2022-12-18T05:18:40.750Z,43.17
2022-12-18T05:21:08.343Z,44.33
2022-12-18T05:23:35.908Z,40.53
2022-12-18T05:26:08.607Z,44.70
2022-12-18T05:28:38.069Z,42.53
2022-12-18T05:31:06.855Z,42.20
2022-12-18T05:33:36.724Z,41.83
2022-12-18T05:36:06.804Z,42.20
2022-12-18T05:38:36.215Z,41.73
2022-12-18T05:41:06.279Z,43.60
2022-12-18T05:43:36.179Z,41.10
2022-12-18T05:46:06.343Z,43.27
2022-12-18T05:48:33.973Z,42.20
2022-12-18T05:51:07.066Z,42.60
2022-12-18T05:53:34.857Z,44.83
2022-12-18T05:56:03.545Z,42.73
2022-12-18T05:58:33.573Z,43.47
2022-12-18T06:01:09.197Z,43.43
2022-12-18T06:03:36.844Z,41.50
2022-12-18T06:06:04.988Z,44.67
2022-12-18T06:08:32.740Z,41.77
2022-12-18T06:11:00.292Z,43.90
2022-12-18T06:13:27.866Z,42.97
2022-12-18T06:15:56.768Z,42.20
2022-12-18T06:18:24.619Z,43.30
2022-12-18T06:20:57.612Z,44.20
2022-12-18T06:23:25.341Z,42.30
2022-12-18T06:25:53.380Z,43.97
2022-12-18T06:28:21.107Z,40.90
2022-12-18T06:30:50.203Z,42.87
2022-12-18T06:33:19.147Z,41.67
2022-12-18T06:35:46.822Z,39.10
2022-12-18T06:38:14.488Z,39.37
2022-12-18T06:40:42.084Z,42.60
2022-12-18T06:43:09.828Z,41.30
2022-12-18T06:45:37.461Z,40.37
2022-12-18T06:48:05.236Z,41.53
2022-12-18T06:50:34.527Z,40.97
2022-12-18T06:53:02.072Z,42.17
2022-12-18T06:55:30.172Z,41.30
2022-12-18T06:57:58.517Z,41.90
2022-12-18T07:00:26.073Z,41.00
2022-12-18T07:02:53.666Z,41.20
2022-12-18T07:05:21.516Z,41.70
2022-12-18T07:07:50.404Z,42.03
2022-12-18T07:10:18.271Z,40.87
2022-12-18T07:12:45.983Z,39.43
2022-12-18T07:15:13.852Z,41.03
2022-12-18T07:17:41.625Z,40.73
2022-12-18T07:20:10.712Z,41.20
2022-12-18T07:22:38.681Z,42.77
2022-12-18T07:25:09.525Z,41.37
2022-12-18T07:27:37.084Z,41.63
2022-12-18T07:30:05.858Z,39.23
2022-12-18T07:32:33.932Z,41.93
2022-12-18T07:35:01.537Z,40.30
2022-12-18T07:37:29.116Z,40.70
2022-12-18T07:39:56.759Z,37.80
2022-12-18T07:42:35.738Z,39.30
2022-12-18T07:45:04.017Z,40.57
2022-12-18T07:47:36.910Z,38.80
2022-12-18T07:50:05.132Z,40.57
2022-12-18T07:52:32.781Z,43.50
2022-12-18T07:55:01.052Z,40.90
2022-12-18T08:00:18.212Z,37.63
2022-12-18T08:02:45.864Z,38.60
2022-12-18T08:05:14.253Z,35.53
2022-12-18T08:07:41.896Z,37.40
2022-12-18T08:10:10.297Z,35.90
2022-12-18T08:12:39.596Z,36.23
2022-12-18T08:15:08.415Z,35.20
2022-12-18T08:17:36.025Z,36.70
2022-12-18T08:20:03.852Z,36.60
2022-12-18T08:22:31.757Z,35.50
2022-12-18T08:24:59.312Z,34.67
2022-12-18T08:27:29.715Z,35.27
2022-12-18T08:29:59.584Z,33.23
2022-12-18T08:32:28.570Z,34.97
2022-12-18T08:34:56.338Z,35.00
2022-12-18T08:37:23.880Z,34.17
2022-12-18T08:39:51.468Z,33.17
2022-12-18T08:42:36.443Z,33.60
2022-12-18T08:45:05.928Z,33.80
2022-12-18T08:47:33.509Z,34.90
2022-12-18T08:50:01.102Z,33.27
2022-12-18T08:52:29.196Z,33.83
2022-12-18T08:54:56.772Z,32.03
2022-12-18T08:57:24.336Z,34.07
2022-12-18T08:59:52.411Z,33.63
2022-12-18T09:02:21.594Z,34.47
2022-12-18T09:04:55.457Z,31.37
2022-12-18T09:07:24.839Z,31.73
2022-12-18T09:09:52.390Z,30.80
2022-12-18T09:12:20.549Z,31.50
2022-12-18T09:14:48.865Z,33.90
2022-12-18T09:17:16.602Z,32.23
2022-12-18T09:19:45.621Z,30.80
2022-12-18T09:22:13.649Z,31.80
2022-12-18T09:24:41.596Z,31.20
2022-12-18T09:27:09.245Z,32.33
2022-12-18T09:29:36.858Z,32.23
2022-12-18T09:32:04.499Z,33.97
2022-12-18T09:34:32.110Z,31.80
2022-12-18T09:37:01.141Z,33.33
2022-12-18T09:39:28.732Z,31.80
2022-12-18T09:41:59.809Z,31.13
2022-12-18T09:44:30.681Z,31.90
2022-12-18T09:47:14.717Z,31.00
2022-12-18T09:49:45.217Z,31.30
2022-12-18T09:52:20.983Z,30.30
2022-12-18T09:54:53.858Z,31.53
2022-12-18T09:57:23.565Z,31.17
2022-12-18T09:59:57.029Z,30.33
2022-12-18T10:02:27.014Z,31.20
2022-12-18T10:05:06.889Z,31.83
2022-12-18T10:07:48.788Z,31.00
2022-12-18T10:10:28.625Z,29.43
2022-12-18T10:13:05.091Z,32.20
2022-12-18T10:15:38.378Z,31.80
2022-12-18T10:18:22.208Z,30.47
2022-12-18T10:20:53.579Z,30.30
2022-12-18T10:23:29.576Z,31.70
2022-12-18T10:26:02.888Z,31.30
2022-12-18T10:28:32.631Z,30.67
2022-12-18T10:31:00.704Z,29.97
2022-12-18T10:33:32.868Z,30.27
2022-12-18T10:36:01.060Z,31.27
2022-12-18T10:38:31.205Z,30.23
2022-12-18T10:41:00.968Z,30.47
2022-12-18T10:43:30.071Z,29.23
2022-12-18T10:46:19.367Z,29.80
2022-12-18T10:48:54.696Z,29.67
2022-12-18T10:51:25.120Z,28.90
2022-12-18T10:54:01.322Z,29.60
2022-12-18T10:56:32.543Z,28.90
2022-12-18T10:59:02.771Z,27.57
2022-12-18T11:01:48.216Z,28.43
2022-12-18T11:04:21.017Z,29.43
2022-12-18T11:06:57.681Z,28.97
2022-12-18T11:09:28.413Z,29.17
2022-12-18T11:11:58.002Z,29.97
2022-12-18T11:14:28.473Z,28.30
2022-12-18T11:17:24.302Z,30.17
2022-12-18T11:19:45.998Z,31.40
2022-12-18T11:22:22.742Z,29.90
2022-12-18T11:25:29.979Z,28.90
2022-12-18T11:27:51.349Z,29.50
2022-12-18T11:30:25.164Z,30.87
2022-12-18T11:32:57.979Z,29.70
2022-12-18T11:35:36.684Z,28.57
2022-12-18T11:38:12.940Z,29.23
2022-12-18T11:40:46.217Z,29.30
2022-12-18T11:43:19.311Z,29.63
2022-12-18T11:45:54.629Z,30.80
2022-12-18T11:48:27.683Z,28.93
2022-12-18T11:50:57.414Z,29.67
2022-12-18T11:53:26.215Z,29.43
2022-12-18T11:56:14.465Z,29.30
2022-12-18T11:58:49.042Z,29.37
2022-12-18T12:01:43.693Z,28.43
2022-12-18T12:04:36.409Z,28.37
2022-12-18T12:07:18.298Z,27.83
2022-12-18T12:09:55.281Z,28.17
2022-12-18T12:12:48.559Z,28.97
2022-12-18T12:15:28.533Z,29.10
2022-12-18T12:18:05.783Z,28.90
2022-12-18T12:20:49.844Z,29.93
2022-12-18T12:23:27.860Z,26.53
2022-12-18T12:26:01.769Z,27.47
2022-12-18T12:28:52.901Z,28.60
2022-12-18T12:31:29.259Z,28.97
2022-12-18T12:34:07.478Z,28.27
2022-12-18T12:36:44.408Z,29.10
2022-12-18T12:39:16.377Z,29.07
2022-12-18T12:42:04.614Z,28.50
2022-12-18T12:44:39.779Z,28.50
2022-12-18T12:47:16.598Z,27.33
2022-12-18T12:49:49.967Z,26.20
2022-12-18T12:52:27.689Z,27.27
2022-12-18T12:54:56.239Z,27.10
2022-12-18T12:57:31.492Z,29.37
2022-12-18T13:00:05.261Z,29.03
2022-12-18T13:02:37.757Z,29.20
2022-12-18T13:05:14.118Z,27.80
2022-12-18T13:07:47.857Z,28.70
2022-12-18T13:10:34.203Z,26.57
2022-12-18T13:13:03.601Z,27.00
2022-12-18T13:15:40.636Z,28.53
2022-12-18T13:18:20.575Z,28.63
2022-12-18T13:20:55.311Z,28.73
2022-12-18T13:23:33.665Z,26.97
2022-12-18T13:26:02.152Z,27.93
2022-12-18T13:28:52.916Z,26.70
2022-12-18T13:31:53.889Z,27.20
2022-12-18T13:34:27.403Z,26.90
2022-12-18T13:36:58.294Z,26.20
2022-12-18T13:39:35.123Z,27.00
2022-12-18T13:43:06.297Z,28.20
2022-12-18T13:45:40.907Z,34.40
2022-12-18T13:48:18.597Z,33.03
2022-12-18T13:50:57.317Z,28.03
2022-12-18T13:53:29.540Z,29.03
2022-12-18T13:55:57.929Z,28.87
2022-12-18T13:58:25.860Z,30.27
2022-12-18T14:00:53.504Z,29.27
2022-12-18T14:03:24.673Z,30.57
2022-12-18T14:06:01.773Z,31.67
2022-12-18T14:08:35.153Z,30.00
2022-12-18T14:11:05.575Z,31.00
2022-12-18T14:13:35.969Z,31.77
2022-12-18T14:16:06.313Z,31.63
2022-12-18T14:18:44.962Z,31.33
2022-12-18T14:21:22.968Z,31.03
2022-12-18T14:23:50.993Z,30.50
2022-12-18T14:26:25.451Z,32.03
2022-12-18T14:28:54.800Z,30.77
2022-12-18T14:31:24.414Z,32.33
2022-12-18T14:33:52.746Z,30.27
2022-12-18T14:36:23.477Z,30.77
2022-12-18T14:38:54.580Z,30.90
2022-12-18T14:41:23.478Z,31.80
2022-12-18T14:43:53.185Z,30.23
2022-12-18T14:46:32.120Z,30.83
2022-12-18T14:49:00.309Z,32.10
2022-12-18T14:51:32.828Z,31.43
2022-12-18T14:54:02.356Z,29.57
2022-12-18T14:56:32.005Z,30.67
2022-12-18T14:59:02.200Z,30.40
2022-12-18T15:01:33.736Z,30.00
2022-12-18T15:04:02.813Z,31.17
2022-12-18T15:06:37.152Z,30.80
2022-12-18T15:09:07.562Z,30.23
2022-12-18T15:11:47.493Z,31.17
2022-12-18T15:14:26.733Z,29.53
2022-12-18T15:16:56.528Z,28.10
2022-12-18T15:19:30.547Z,29.00
2022-12-18T15:22:05.909Z,29.70
2022-12-18T15:24:34.974Z,29.97
2022-12-18T15:27:03.152Z,30.50
2022-12-18T15:29:30.786Z,30.80
2022-12-18T15:32:04.174Z,30.70
2022-12-18T15:34:32.236Z,31.83
2022-12-18T15:37:01.532Z,32.23
2022-12-18T15:39:29.272Z,30.20
2022-12-18T15:42:14.491Z,30.20
2022-12-18T15:44:42.058Z,31.03
2022-12-18T15:47:14.595Z,27.40
2022-12-18T15:49:42.317Z,29.67
2022-12-18T15:52:15.212Z,27.33
2022-12-18T15:55:00.463Z,29.20
2022-12-18T15:57:28.509Z,27.67
2022-12-18T15:59:58.893Z,28.03
2022-12-18T16:02:27.196Z,28.27
2022-12-18T16:04:55.438Z,30.40
2022-12-18T16:07:28.197Z,28.90
2022-12-18T16:09:58.885Z,28.03
2022-12-18T16:12:28.300Z,29.33
2022-12-18T16:14:55.997Z,27.20
2022-12-18T16:17:23.587Z,29.23
2022-12-18T16:19:51.285Z,29.80
2022-12-18T16:22:23.377Z,35.60
2022-12-18T16:24:53.319Z,31.70
2022-12-18T16:27:21.508Z,34.47
2022-12-18T16:29:49.101Z,32.07
2022-12-18T16:32:18.649Z,40.53
2022-12-18T16:34:47.356Z,32.10
2022-12-18T16:37:16.574Z,31.33
2022-12-18T16:39:44.969Z,29.83
2022-12-18T16:42:17.800Z,31.37
2022-12-18T16:44:46.320Z,29.20
2022-12-18T16:47:15.324Z,30.87
2022-12-18T16:49:43.425Z,32.53
2022-12-18T16:52:11.024Z,31.27
2022-12-18T16:54:38.682Z,33.30
2022-12-18T16:57:06.370Z,30.23
2022-12-18T16:59:35.476Z,32.07
2022-12-18T17:02:07.234Z,34.33
2022-12-18T17:04:34.921Z,32.40
2022-12-18T17:07:04.549Z,32.57
2022-12-18T17:09:32.147Z,39.17
2022-12-18T17:12:03.980Z,33.33
2022-12-18T17:14:33.763Z,33.27
2022-12-18T17:19:50.994Z,30.87
2022-12-18T17:22:18.618Z,32.67
2022-12-18T17:24:47.301Z,31.43
2022-12-18T17:27:14.899Z,31.73
2022-12-18T17:29:47.415Z,32.37
2022-12-18T17:32:17.904Z,33.80
2022-12-18T17:34:46.044Z,31.67
2022-12-18T17:37:13.732Z,31.33
2022-12-18T17:39:41.968Z,33.97
2022-12-18T17:42:10.894Z,32.00
2022-12-18T17:44:43.404Z,32.80
2022-12-18T17:47:12.876Z,32.90
2022-12-18T17:49:41.929Z,33.23
2022-12-18T17:52:09.620Z,38.30
2022-12-18T17:54:39.572Z,36.63
2022-12-18T17:57:07.337Z,38.37
2022-12-18T17:59:35.009Z,33.93
2022-12-18T18:02:02.783Z,32.17
2022-12-18T18:04:30.526Z,36.13
2022-12-18T18:06:59.466Z,33.60
2022-12-18T18:09:27.379Z,35.90
2022-12-18T18:12:12.595Z,38.50
2022-12-18T18:14:40.225Z,36.07
2022-12-18T18:17:08.168Z,36.77
2022-12-18T18:19:35.844Z,38.70
2022-12-18T18:22:04.911Z,37.87
2022-12-18T18:24:34.493Z,37.73
2022-12-18T18:27:02.187Z,35.30
2022-12-18T18:29:31.229Z,37.67
2022-12-18T18:31:59.508Z,36.93
2022-12-18T18:34:28.944Z,37.60
2022-12-18T18:36:56.657Z,36.37
2022-12-18T18:39:25.988Z,37.70
2022-12-18T18:41:53.645Z,40.50
2022-12-18T18:44:26.179Z,36.23
2022-12-18T18:46:55.107Z,35.60
2022-12-18T18:49:24.090Z,37.87
2022-12-18T18:51:51.981Z,37.03
2022-12-18T18:54:19.546Z,36.03
2022-12-18T18:57:19.275Z,35.07
2022-12-18T18:59:36.963Z,38.80
2022-12-18T19:02:05.183Z,38.60
2022-12-18T19:04:33.590Z,36.83
2022-12-18T19:07:01.451Z,36.40
2022-12-18T19:09:29.383Z,39.60
2022-12-18T19:12:16.635Z,36.97
2022-12-18T19:14:44.588Z,35.43
2022-12-18T19:17:12.222Z,36.63
2022-12-18T19:19:40.107Z,35.07
2022-12-18T19:22:07.921Z,35.77
2022-12-18T19:24:36.554Z,35.00
2022-12-18T19:27:05.645Z,35.17
2022-12-18T19:29:33.218Z,34.03
2022-12-18T19:32:01.048Z,37.93
2022-12-18T19:34:28.714Z,34.77
2022-12-18T19:36:59.731Z,34.43
2022-12-18T19:39:27.804Z,34.33
2022-12-18T19:41:55.422Z,34.80
2022-12-18T19:44:24.353Z,34.63
2022-12-18T19:46:52.569Z,34.40
2022-12-18T19:49:20.184Z,33.37
2022-12-18T19:51:50.291Z,31.60
2022-12-18T19:54:18.554Z,34.43
2022-12-18T19:56:47.260Z,31.80
2022-12-18T19:59:15.581Z,33.93
2022-12-18T20:01:44.574Z,35.40
2022-12-18T20:04:12.293Z,33.27
2022-12-18T20:06:49.203Z,32.33
2022-12-18T20:09:17.509Z,32.87
2022-12-18T20:11:45.869Z,33.43
2022-12-18T20:14:16.114Z,32.70
2022-12-18T20:16:53.425Z,32.40
2022-12-18T20:19:22.174Z,31.20
2022-12-18T20:21:50.253Z,32.20
2022-12-18T20:24:17.928Z,33.40
2022-12-18T20:26:45.563Z,30.90
2022-12-18T20:29:13.136Z,32.97
2022-12-18T20:31:41.583Z,32.57
2022-12-18T20:34:10.564Z,32.20
2022-12-18T20:36:41.074Z,31.93
2022-12-18T20:39:12.147Z,30.60
2022-12-18T20:41:39.974Z,32.97
2022-12-18T20:44:10.281Z,30.30
2022-12-18T20:46:50.116Z,31.67
2022-12-18T20:49:19.179Z,31.70
2022-12-18T20:51:47.033Z,32.00
2022-12-18T20:54:14.620Z,31.03
2022-12-18T20:56:42.618Z,31.77
2022-12-18T20:59:10.594Z,33.27
2022-12-18T21:01:40.260Z,32.47
2022-12-18T21:04:17.408Z,30.83
2022-12-18T21:06:52.381Z,31.93
2022-12-18T21:09:22.167Z,31.33
2022-12-18T21:12:08.096Z,30.00
2022-12-18T21:14:38.549Z,29.50
2022-12-18T21:17:06.486Z,31.10
2022-12-18T21:19:34.109Z,31.63
2022-12-18T21:22:03.330Z,32.67
2022-12-18T21:24:32.804Z,31.10
2022-12-18T21:27:00.679Z,29.20
2022-12-18T21:29:28.729Z,29.63
2022-12-18T21:31:56.660Z,30.77
2022-12-18T21:34:26.559Z,32.87
2022-12-18T21:36:55.217Z,33.00
2022-12-18T21:39:24.961Z,32.70
2022-12-18T21:42:10.498Z,32.30
2022-12-18T21:44:41.986Z,32.20
2022-12-18T21:47:21.893Z,33.50
2022-12-18T21:49:51.547Z,31.73
2022-12-18T21:52:19.248Z,31.83
2022-12-18T21:54:48.270Z,31.37
2022-12-18T21:57:15.900Z,30.10
2022-12-18T21:59:44.187Z,31.93
2022-12-18T22:02:14.079Z,31.80
2022-12-18T22:04:43.036Z,30.67
2022-12-18T22:07:11.657Z,32.43
2022-12-18T22:09:39.605Z,32.67
2022-12-18T22:12:09.904Z,31.17
2022-12-18T22:14:37.541Z,30.90
2022-12-18T22:17:05.181Z,31.77
2022-12-18T22:19:35.696Z,31.20
2022-12-18T22:22:08.745Z,34.50
2022-12-18T22:24:36.295Z,32.60
2022-12-18T22:27:03.931Z,32.30
2022-12-18T22:29:50.561Z,33.10
2022-12-18T22:32:30.911Z,31.60
2022-12-18T22:35:05.806Z,31.67
2022-12-18T22:37:35.102Z,33.47
2022-12-18T22:40:03.233Z,31.73
2022-12-18T22:42:31.620Z,33.67
2022-12-18T22:45:00.796Z,36.40
2022-12-18T22:47:30.364Z,40.60
2022-12-18T22:49:58.856Z,38.43
2022-12-18T22:52:26.460Z,34.80
2022-12-18T22:54:54.532Z,33.00
2022-12-18T22:57:23.210Z,31.43
2022-12-18T22:59:51.209Z,32.83
2022-12-18T23:02:20.698Z,32.80
2022-12-18T23:04:48.504Z,35.30
2022-12-18T23:07:19.721Z,33.20
2022-12-18T23:09:48.348Z,33.37
2022-12-18T23:12:18.414Z,31.97
2022-12-18T23:14:47.058Z,34.03
2022-12-18T23:17:14.877Z,33.40
2022-12-18T23:19:48.847Z,33.43
2022-12-18T23:22:16.906Z,33.63
2022-12-18T23:24:44.617Z,35.20
2022-12-18T23:27:12.369Z,33.63
2022-12-18T23:29:40.920Z,34.50
2022-12-18T23:32:09.166Z,32.30
2022-12-18T23:34:36.727Z,32.57
2022-12-18T23:37:05.656Z,34.67
2022-12-18T23:39:33.275Z,32.20
2022-12-18T23:42:01.494Z,34.73
2022-12-18T23:44:29.140Z,33.53
2022-12-18T23:46:57.296Z,32.20
2022-12-18T23:49:24.953Z,32.80
2022-12-18T23:51:54.744Z,31.83
2022-12-18T23:54:32.862Z,33.40
2022-12-18T23:57:01.558Z,32.30
2022-12-18T23:59:29.155Z,32.13
